Station: Leigh Creek

  Atmospheric Gas Attenuation - ITU Rec 676-11   --------------- db/100km ---------------
Date Time Temp RH % AH g/m3 Dew Point Wind Direction Speed kph Gust kph Barometer mB Rainfall Since 9am 24GHz 47GHz 76GHz 122GHz 134GHz 241GHz
24 19:20 39.2 9 4.42 0.6 17 20 1000 0 10.0 14.8 17.8 46.1 34.6 117.3
24 19:10 39.6 8 4 -0.8 26 30 999.9 0 9.2 14.3 16.7 43.2 31.1 104.9
24 19:00 39.7 9 4.53 0.9 24 35 999.7 0 10.2 14.8 17.9 46.6 35.3 119.7
24 18:50 39.9 9 4.57 1.1 30 35 999.7 0 10.3 14.8 18.0 46.7 35.6 120.6
24 18:40 40 10 5.11 2.6 13 15 999.6 0 11.4 15.4 19.3 50.2 39.9 135.9
24 18:30 40 10 5.11 2.6 20 30 999.5 0 11.4 15.4 19.3 50.2 39.9 135.9
24 18:20 40.3 10 5.19 2.8 22 26 999.5 0 11.5 15.4 19.4 50.6 40.4 137.8
24 18:10 40.5 10 5.24 3 22 26 999.5 0 11.6 15.4 19.5 50.8 40.7 138.9
24 18:00 40.4 10 5.21 2.9 20 33 999.5 0 11.6 15.4 19.5 50.6 40.5 138.2
24 17:50 40.7 10 5.29 3.1 19 30 999.6 0 11.7 15.4 19.6 51.0 41.1 140.0
24 17:40 40.5 10 5.24 3 11 13 999.7 0 11.6 15.4 19.5 50.8 40.7 138.9
24 17:30 40.6 10 5.26 3.1 28 37 999.7 0 11.7 15.4 19.6 50.9 40.9 139.3
24 17:20 40.6 10 5.26 3.1 28 32 999.8 0 11.7 15.4 19.6 50.9 40.9 139.4
24 17:10 40.8 10 5.32 3.2 33 35 999.9 0 11.8 15.5 19.7 51.2 41.3 140.8
24 17:00 40.8 10 5.32 3.2 24 37 999.9 0 11.8 15.5 19.7 51.2 41.3 140.8
24 16:50 41.4 10 5.48 3.7 22 26 1000 0 12.1 15.5 19.9 51.9 42.3 144.5
24 16:40 41.3 11 6 4.9 13 20 1000.1 0 13.1 16.1 21.3 55.4 46.7 159.8
24 16:30 41.7 11 6.12 5.3 26 41 1000.3 0 13.4 16.1 21.5 56.0 47.4 162.6
24 16:20 41.4 11 6.03 5 22 30 1000.5 0 13.2 16.1 21.3 55.6 46.9 160.6
24 16:10 41 12 6.44 6 26 33 1000.7 0 14.0 16.6 22.5 58.7 50.6 173.5
24 16:00 40.5 13 6.81 6.7 24 37 1000.8 0 14.8 17.1 23.6 61.6 54.0 185.8
24 15:50 42 12 6.77 6.7 22 26 1001.1 0 14.7 16.8 23.1 60.3 52.8 181.5
24 15:40 41.3 11 6 4.9 19 22 1001.2 0 13.1 16.1 21.3 55.5 46.7 160.0
24 15:30 41 11 5.91 4.7 30 46 1001.3 0 13.0 16.1 21.1 55.1 46.1 157.9
24 15:20 41.2 11 5.97 4.9 35 41 1001.5 0 13.1 16.1 21.2 55.4 46.5 159.3
24 15:10 41.4 12 6.57 6.3 32 39 1001.7 0 14.3 16.7 22.7 59.4 51.5 176.8
24 15:00 41.2 12 6.51 6.1 26 44 1001.9 0 14.2 16.7 22.6 59.1 51.1 175.4
24 14:50 41.2 12 6.51 6.1 32 35 1002.1 0 14.2 16.7 22.6 59.1 51.1 175.5
24 14:40 40.6 13 6.84 6.8 33 39 1002.4 0 14.8 17.1 23.7 61.9 54.3 186.8
24 14:30 40.2 13 6.71 6.5 30 46 1002.5 0 14.6 17.1 23.4 61.2 53.5 183.6
24 14:20 40.7 13 6.88 6.9 24 30 1002.6 0 14.9 17.2 23.7 62.1 54.6 187.8
24 14:10 40.5 12 6.28 5.6 28 32 1002.8 0 13.7 16.6 22.2 58.1 49.6 170.0
24 14:00 40.3 14 7.26 7.7 32 44 1002.9 0 15.7 17.7 24.9 65.1 58.2 200.5
24 13:50 40.2 12 6.19 5.4 28 32 1003.2 0 13.5 16.5 22.1 57.7 49.0 168.0
24 13:40 40.3 14 7.26 7.7 28 32 1003.2 0 15.7 17.7 24.9 65.1 58.2 200.5
24 13:30 40.6 14 7.37 7.9 32 46 1003.3 0 15.9 17.8 25.1 65.7 59.0 203.3
24 13:20 40.9 13 6.95 7.1 35 43 1003.6 0 15.1 17.2 23.9 62.5 55.1 189.7
24 13:10 40.1 12 6.16 5.3 35 43 1003.9 0 13.5 16.5 22.1 57.6 48.8 167.4
24 13:00 40.2 13 6.71 6.5 33 44 1003.9 0 14.6 17.1 23.5 61.3 53.5 183.9
24 12:50 40.6 14 7.37 7.9 24 39 1004.2 0 15.9 17.8 25.1 65.8 59.1 203.4
24 12:40 40.6 14 7.37 7.9 32 56 1004.1 0 15.9 17.8 25.1 65.8 59.1 203.4
24 12:30 39.3 15 7.4 7.9 30 43 1004.5 0 16.0 18.1 25.6 67.0 60.3 207.5
24 12:20 38.8 16 7.69 8.5 30 35 1004.7 0 16.6 18.5 26.5 69.5 63.3 218.0
24 12:10 39 16 7.77 8.6 33 37 1004.7 0 16.8 18.5 26.7 70.0 63.8 220.1
24 12:00 39.1 16 7.81 8.7 33 48 1004.8 0 16.9 18.6 26.8 70.2 64.1 221.2
24 11:50 38.5 17 8.05 9.1 41 52 1005 0 17.4 19.0 27.7 72.5 66.8 230.6
24 11:40 38.5 17 8.05 9.1 37 44 1005.3 0 17.4 19.0 27.7 72.5 66.9 230.6
24 11:30 38.5 17 8.05 9.1 37 52 1005.3 0 17.4 19.0 27.7 72.5 66.9 230.6
24 11:20 38 18 8.31 9.6 39 46 1005.5 0 17.9 19.4 28.6 75.0 69.7 240.6
24 11:10 37.7 18 8.18 9.3 41 48 1005.6 0 17.7 19.3 28.3 74.2 68.7 237.2
24 11:00 38.4 18 8.48 9.9 37 56 1005.6 0 18.2 19.5 28.9 75.9 71.0 245.1
24 10:50 38.1 17 7.89 8.8 33 37 1005.8 0 17.1 18.9 27.4 71.7 65.7 226.6
24 10:40 37.6 18 8.14 9.2 32 44 1005.8 0 17.6 19.3 28.2 74.0 68.4 236.1
24 10:30 37.1 18 7.94 8.8 37 46 1005.7 0 17.2 19.1 27.8 72.9 67.0 230.8
24 10:20 36.9 19 8.29 9.5 37 44 1005.9 0 17.9 19.6 28.9 75.8 70.5 243.1
24 10:10 36.7 18 7.77 8.5 35 43 1006 0 16.9 19.0 27.5 72.0 65.7 226.3
24 10:00 36.8 18 7.81 8.6 32 43 1005.9 0 16.9 19.0 27.6 72.2 66.0 227.4
24 09:50 36.3 17 7.19 7.4 37 43 1006.1 0 15.7 18.4 26.0 67.9 60.5 208.3
24 09:40 36.4 17 7.23 7.4 33 39 1006.1 0 15.8 18.4 26.0 68.1 60.9 209.3
24 09:30 36.1 18 7.54 8 32 46 1006.1 0 16.4 18.9 27.0 70.7 64.0 220.3
24 09:20 35.7 18 7.38 7.7 30 33 1006.2 0 16.1 18.8 26.7 69.8 62.8 216.0
24 09:10 35.8 18 7.42 7.8 35 41 1006.2 0 16.2 18.8 26.8 70.0 63.1 217.1
24 09:00 35.3 18 7.23 7.4 35 54 1006.2 0 15.8 18.7 26.4 69.0 61.7 212.0
24 08:50 35.5 18 7.31 7.5 32 35 1006.2 0 16.0 18.7 26.5 69.4 62.3 214.2
24 08:40 35 19 7.52 7.9 26 32 1006.1 0 16.4 19.1 27.3 71.5 64.6 222.5
24 08:30 34.7 19 7.4 7.7 30 43 1006 0 16.2 19.0 27.0 70.8 63.7 219.2
24 08:20 34.2 20 7.59 8 30 35 1006 0 16.6 19.3 27.8 72.7 65.9 226.9
24 08:10 33.7 20 7.39 7.6 26 30 1005.9 0 16.2 19.2 27.3 71.5 64.4 221.4
24 08:00 32.9 21 7.44 7.7 24 33 1005.9 0 16.3 19.4 27.7 72.6 65.5 225.2
24 07:50 32.7 21 7.36 7.5 20 26 1005.9 0 16.2 19.3 27.6 72.1 64.8 223.0
24 07:40 30.7 23 7.24 7.2 0 6 1005.8 0 16.0 19.6 27.9 72.9 65.2 224.1
24 07:30 30 23 6.98 6.6 4 7 1005.6 0 15.5 19.4 27.3 71.3 63.1 216.8
24 07:20 29.9 23 6.94 6.5 6 6 1005.7 0 15.4 19.4 27.2 71.1 62.8 215.6
24 07:10 30.1 22 6.71 6.1 0 0 1005.6 0 15.0 19.0 26.4 69.1 60.4 207.1
24 07:00 29.8 23 6.9 6.5 2 7 1005.3 0 15.4 19.3 27.1 70.8 62.5 214.4
24 06:50 29.6 23 6.83 6.3 0 0 1005.4 0 15.2 19.3 27.0 70.5 61.9 212.5
24 06:40 29.6 23 6.83 6.3 0 2 1005.3 0 15.2 19.3 27.0 70.4 61.9 212.5
24 06:30 28.8 23 6.54 5.6 0 6 1005.1 0 14.7 19.1 26.3 68.7 59.6 204.2
24 06:20 28.5 23 6.43 5.4 0 0 1005.1 0 14.4 19.0 26.1 68.1 58.7 201.1
24 06:10 28.6 23 6.46 5.5 7 9 1005 0 14.5 19.0 26.1 68.3 58.9 201.9
24 06:00 28.8 23 6.54 5.6 2 7 1004.8 0 14.7 19.1 26.3 68.7 59.6 204.2
24 05:50 29.2 22 6.39 5.3 0 0 1004.8 0 14.3 18.8 25.7 67.2 57.8 198.0
24 05:40 29.8 21 6.3 5.1 6 7 1004.8 0 14.1 18.6 25.3 66.0 56.5 193.5
24 05:30 30.5 21 6.54 5.7 7 11 1004.6 0 14.6 18.7 25.8 67.3 58.4 200.1
24 05:20 30.8 21 6.65 6 9 11 1004.8 0 14.8 18.8 26.0 68.0 59.2 203.2
24 04:50 32 19 6.42 5.5 15 17 1004.7 0 14.3 18.3 25.0 65.2 56.2 192.6
24 04:40 32.2 19 6.48 5.7 17 20 1004.7 0 14.4 18.3 25.1 65.6 56.6 194.1
24 04:30 32.2 19 6.48 5.7 15 19 1004.6 0 14.4 18.3 25.1 65.5 56.6 194.1
24 04:20 32.6 18 6.28 5.2 13 15 1004.7 0 14.0 18.0 24.4 63.7 54.5 186.6
24 04:10 32.7 18 6.31 5.3 17 22 1004.7 0 14.0 18.0 24.5 63.9 54.7 187.3
24 04:00 32.6 17 5.93 4.4 17 22 1004.7 0 13.3 17.6 23.4 61.1 51.2 175.0
24 03:50 32.7 16 5.61 3.6 17 19 1004.8 0 12.6 17.2 22.5 58.6 48.2 164.4
24 03:40 32.6 14 4.88 1.7 15 17 1004.8 0 11.1 16.4 20.5 53.3 41.6 141.3
24 03:30 32.7 13 4.56 0.7 19 24 1004.8 0 10.5 16.1 19.7 50.9 38.7 131.1
24 03:20 32.2 12 4.1 -0.8 19 20 1005 0 9.5 15.6 18.5 48.0 34.9 117.6
24 03:10 30.6 12 3.76 -2 15 17 1005.1 0 8.9 15.5 18.0 46.5 32.6 109.2
24 03:00 30.1 12 3.66 -2.4 2 9 1005.1 0 8.7 15.5 17.8 46.0 31.9 106.7
24 02:50 30.4 12 3.72 -2.2 0 0 1005.3 0 8.8 15.5 17.9 46.3 32.3 108.2
24 02:40 30.3 11 3.39 -3.4 0 0 1005.2 0 8.1 15.2 17.1 44.0 29.5 98.2
24 02:30 31.4 10 3.27 -3.8 0 0 1005.1 0 7.9 14.9 16.6 42.6 28.1 93.3

Last Refresh: 24-Jan-2021 19:28:03

Most of the information presented on this site is sourced from the Bureau of Meteorology.  Copyright in all material sourced from the Bureau of Meteorology resides with the Commonwealth of Australia.